Time;durP1;ratioP1;P1;durP2;ratioP2;P2;SDS_P1;SDS_P2;PMS_P1;PMS_P2;Temp;Humidity;BMP_temperature;BMP_pressure;BME280_temperature;BME280_humidity;BME280_pressure;Samples;Min_cycle;Max_cycle;Signal;HPM_P1;HPM_P2
2022/04/19 00:00:38;;;;;;;8.32;5.82;;;7.60;99.90;;;;;;5059938;28;20049;-76
2022/04/19 00:03:06;;;;;;;6.45;5.82;;;7.60;99.90;;;;;;5068305;28;20040;-76
2022/04/19 00:05:33;;;;;;;7.95;5.38;;;7.50;99.90;;;;;;5068516;28;20041;-76
2022/04/19 00:08:03;;;;;;;6.28;5.68;;;7.60;99.90;;;;;;5125448;22;20048;-75
2022/04/19 00:10:29;;;;;;;6.97;5.90;;;7.60;99.90;;;;;;5090568;28;20059;-76
2022/04/19 00:12:56;;;;;;;6.07;5.43;;;7.50;99.90;;;;;;5107835;28;20034;-76
2022/04/19 00:15:23;;;;;;;8.25;4.97;;;7.60;99.90;;;;;;5109099;28;20555;-76
2022/04/19 00:17:48;;;;;;;7.68;5.55;;;7.50;99.90;;;;;;5104139;28;20050;-76
2022/04/19 00:20:14;;;;;;;6.90;6.20;;;7.50;99.90;;;;;;5078815;28;20044;-76
2022/04/19 00:22:40;;;;;;;7.95;5.95;;;7.50;99.90;;;;;;5090822;28;20085;-76
2022/04/19 00:25:07;;;;;;;7.28;6.05;;;7.50;99.90;;;;;;5107039;28;20373;-76
2022/04/19 00:27:33;;;;;;;6.43;5.75;;;7.50;99.90;;;;;;5106903;28;20100;-76
2022/04/19 00:29:59;;;;;;;7.75;6.10;;;7.40;99.90;;;;;;5102054;28;20073;-76
2022/04/19 00:32:24;;;;;;;7.15;6.45;;;7.40;99.90;;;;;;5086787;28;20040;-76
2022/04/19 00:34:51;;;;;;;7.93;6.60;;;7.30;99.90;;;;;;5106024;28;20043;-76
2022/04/19 00:37:20;;;;;;;7.85;7.05;;;7.20;99.90;;;;;;5099017;28;20114;-76
2022/04/19 00:39:46;;;;;;;8.25;7.18;;;7.10;99.90;;;;;;5110543;28;20063;-76
2022/04/19 00:42:11;;;;;;;8.48;6.60;;;7.10;99.90;;;;;;5113597;28;20094;-76
2022/04/19 00:44:39;;;;;;;7.45;6.75;;;7.10;99.90;;;;;;5112629;28;20035;-76
2022/04/19 00:47:09;;;;;;;6.50;5.80;;;7.10;99.90;;;;;;5113469;28;20067;-76
2022/04/19 00:49:42;;;;;;;6.88;5.88;;;7.10;99.90;;;;;;5104632;28;20558;-76
2022/04/19 00:52:08;;;;;;;5.93;5.07;;;7.20;99.90;;;;;;5112190;28;20112;-76
2022/04/19 00:54:34;;;;;;;7.32;5.93;;;7.10;99.90;;;;;;5111103;28;20040;-76
2022/04/19 00:57:01;;;;;;;7.93;5.40;;;7.20;99.90;;;;;;5110924;28;20484;-76
2022/04/19 00:59:26;;;;;;;5.97;5.40;;;7.10;99.90;;;;;;5109304;28;20504;-76
2022/04/19 01:01:52;;;;;;;6.40;5.75;;;7.10;99.90;;;;;;5094808;28;20050;-76
2022/04/19 01:04:18;;;;;;;5.78;5.18;;;7.10;99.90;;;;;;5107167;28;20039;-76
2022/04/19 01:06:45;;;;;;;5.75;5.25;;;7.00;99.90;;;;;;5110612;28;20047;-76
2022/04/19 01:09:11;;;;;;;6.45;5.72;;;7.00;99.90;;;;;;5111947;28;20518;-75
2022/04/19 01:14:22;;;;;;;5.80;5.30;;;6.90;99.90;;;;;;5106711;28;20177;-75
2022/04/19 01:16:48;;;;;;;5.88;5.32;;;6.80;99.90;;;;;;5094191;28;20126;-76
2022/04/19 01:19:15;;;;;;;5.97;5.43;;;6.80;99.90;;;;;;5094497;28;20181;-76
2022/04/19 01:21:50;;;;;;;7.63;6.70;;;6.70;99.90;;;;;;5108317;28;20035;-76
2022/04/19 01:24:20;;;;;;;7.05;6.35;;;6.60;99.90;;;;;;5110090;28;20039;-76
2022/04/19 01:26:46;;;;;;;10.20;7.28;;;6.60;99.90;;;;;;5111325;28;20039;-76
2022/04/19 01:29:12;;;;;;;9.10;6.82;;;6.50;99.90;;;;;;5108363;28;20115;-76
2022/04/19 01:31:41;;;;;;;8.15;6.40;;;6.30;99.90;;;;;;5111509;28;20648;-76
2022/04/19 01:34:07;;;;;;;7.18;6.07;;;6.30;99.90;;;;;;5100592;28;20048;-75
2022/04/19 01:36:37;;;;;;;7.05;6.28;;;6.30;99.90;;;;;;5099204;27;20083;-76
2022/04/19 01:39:07;;;;;;;7.22;6.53;;;6.40;99.90;;;;;;5107289;28;20503;-76
2022/04/19 01:41:34;;;;;;;6.40;5.63;;;6.40;99.90;;;;;;5098769;28;20381;-77
2022/04/19 01:44:00;;;;;;;6.53;5.82;;;6.40;99.90;;;;;;5104929;28;20051;-76
2022/04/19 01:46:31;;;;;;;8.05;6.30;;;6.40;99.90;;;;;;5108788;28;20039;-76
2022/04/19 01:48:57;;;;;;;7.50;6.17;;;6.40;99.90;;;;;;5087832;28;20032;-76
2022/04/19 01:51:24;;;;;;;7.50;5.93;;;6.20;99.90;;;;;;5105707;28;20052;-76
2022/04/19 01:53:50;;;;;;;7.93;7.13;;;6.30;99.90;;;;;;5110211;28;20044;-76
2022/04/19 01:56:16;;;;;;;7.20;6.43;;;6.30;99.90;;;;;;5087467;28;20512;-76
2022/04/19 01:58:42;;;;;;;8.00;6.25;;;6.20;99.90;;;;;;5091837;28;20035;-76
2022/04/19 02:01:08;;;;;;;9.45;6.85;;;6.20;99.90;;;;;;5106845;28;20051;-76
2022/04/19 02:03:35;;;;;;;9.25;7.78;;;6.10;99.90;;;;;;5111234;28;20046;-76
2022/04/19 02:06:20;;;;;;;8.93;7.97;;;6.10;99.90;;;;;;5108434;28;20042;-77
2022/04/19 02:08:46;;;;;;;9.25;8.02;;;6.10;99.90;;;;;;5109351;28;20063;-76
2022/04/19 02:11:11;;;;;;;10.32;8.38;;;6.10;99.90;;;;;;5086784;28;20466;-76
2022/04/19 02:13:37;;;;;;;9.75;8.18;;;6.10;99.90;;;;;;5109624;28;20480;-76
2022/04/19 02:16:03;;;;;;;11.05;9.15;;;6.10;99.90;;;;;;5107486;28;20038;-76
2022/04/19 02:18:28;;;;;;;10.65;8.70;;;6.10;99.90;;;;;;5109097;28;20535;-76
2022/04/19 02:20:54;;;;;;;11.00;9.27;;;5.90;99.90;;;;;;5099975;28;20051;-76
2022/04/19 02:23:20;;;;;;;10.48;8.45;;;5.90;99.90;;;;;;5108922;28;20092;-76
2022/04/19 02:25:47;;;;;;;11.40;9.90;;;5.80;99.90;;;;;;5105177;28;20123;-76
2022/04/19 02:28:12;;;;;;;10.98;9.10;;;5.80;99.90;;;;;;5102619;28;20047;-76
2022/04/19 02:30:38;;;;;;;10.30;8.60;;;5.80;99.90;;;;;;5107727;28;20038;-76
2022/04/19 02:33:04;;;;;;;8.50;7.35;;;5.80;99.90;;;;;;5107212;28;20065;-76
2022/04/19 02:35:31;;;;;;;11.77;8.85;;;5.80;99.90;;;;;;5092629;28;20072;-76
2022/04/19 02:37:58;;;;;;;12.15;10.13;;;5.80;99.90;;;;;;5108050;28;20052;-76
2022/04/19 02:40:25;;;;;;;10.88;9.63;;;5.60;99.90;;;;;;5109297;28;20392;-76
2022/04/19 02:42:54;;;;;;;11.70;8.90;;;5.60;99.90;;;;;;5094649;28;20032;-76
2022/04/19 02:45:21;;;;;;;10.75;9.52;;;5.50;99.90;;;;;;5107761;28;20028;-76
2022/04/19 02:47:47;;;;;;;10.48;8.57;;;5.50;99.90;;;;;;5107974;28;20079;-77
2022/04/19 02:50:15;;;;;;;9.80;8.32;;;5.60;99.90;;;;;;5106893;28;20046;-77
2022/04/19 02:52:40;;;;;;;14.15;8.70;;;5.70;99.90;;;;;;5108392;28;20070;-76
2022/04/19 02:55:06;;;;;;;11.48;8.65;;;5.70;99.90;;;;;;5106713;28;20039;-77
2022/04/19 02:57:33;;;;;;;11.13;8.80;;;5.70;99.90;;;;;;5107356;28;20476;-77
2022/04/19 02:59:59;;;;;;;13.15;8.35;;;5.70;99.90;;;;;;5104531;28;20199;-76
2022/04/19 03:02:24;;;;;;;10.20;8.55;;;5.70;99.90;;;;;;5104405;28;20110;-76
2022/04/19 03:04:51;;;;;;;13.60;8.80;;;5.70;99.90;;;;;;5109891;28;20043;-76
2022/04/19 03:07:17;;;;;;;9.95;8.90;;;5.70;99.90;;;;;;5107062;28;20524;-76
2022/04/19 03:09:42;;;;;;;11.80;9.48;;;5.70;99.90;;;;;;5109503;28;20127;-76
2022/04/19 03:12:14;;;;;;;11.27;9.57;;;5.60;99.90;;;;;;5102781;28;20608;-76
2022/04/19 03:14:41;;;;;;;12.30;9.38;;;5.60;99.90;;;;;;5111069;28;20043;-76
2022/04/19 03:17:07;;;;;;;11.52;9.10;;;5.60;99.90;;;;;;5083579;28;20039;-76
2022/04/19 03:19:33;;;;;;;12.25;9.73;;;5.70;99.90;;;;;;5092518;28;20897;-77
2022/04/19 03:21:59;;;;;;;13.25;10.07;;;5.70;99.90;;;;;;5088399;28;20100;-77
2022/04/19 03:29:52;;;;;;;11.73;9.95;;;5.50;99.90;;;;;;5103326;28;20043;-77
2022/04/19 03:32:19;;;;;;;12.02;10.35;;;5.50;99.90;;;;;;5091480;28;20039;-76
2022/04/19 03:34:46;;;;;;;13.50;10.55;;;5.50;99.90;;;;;;5108192;28;20054;-77
2022/04/19 03:37:11;;;;;;;11.73;10.18;;;5.60;99.90;;;;;;5095900;28;20130;-77
2022/04/19 03:39:37;;;;;;;11.50;10.10;;;5.60;99.90;;;;;;5109857;28;20429;-76
2022/04/19 03:42:02;;;;;;;13.48;10.50;;;5.60;99.90;;;;;;5092275;28;20128;-76
2022/04/19 03:44:30;;;;;;;12.23;10.30;;;5.60;99.90;;;;;;5093833;28;20454;-76
2022/04/19 03:47:12;;;;;;;11.00;9.35;;;5.60;99.90;;;;;;5108726;28;20428;-76
2022/04/19 03:49:39;;;;;;;11.32;9.50;;;5.60;99.90;;;;;;5098808;28;20031;-77
2022/04/19 03:52:06;;;;;;;10.00;8.88;;;5.50;99.90;;;;;;5107509;28;20043;-77
2022/04/19 03:54:37;;;;;;;14.40;10.45;;;5.50;99.90;;;;;;5109810;28;20049;-77
2022/04/19 03:57:07;;;;;;;10.35;9.05;;;5.60;99.90;;;;;;5110467;28;20051;-77
2022/04/19 03:59:34;;;;;;;11.88;9.30;;;5.60;99.90;;;;;;5104133;28;20430;-77
2022/04/19 04:02:00;;;;;;;10.50;8.68;;;5.60;99.90;;;;;;5085413;28;20039;-77
2022/04/19 04:04:30;;;;;;;10.50;8.77;;;5.60;99.90;;;;;;5089140;28;20147;-76
2022/04/19 04:07:06;;;;;;;11.05;9.85;;;5.50;99.90;;;;;;5098902;28;20054;-77
2022/04/19 04:09:32;;;;;;;10.82;9.15;;;5.50;99.90;;;;;;5089739;28;20051;-77
2022/04/19 04:12:09;;;;;;;11.25;9.68;;;5.50;99.90;;;;;;5081850;28;20395;-77
2022/04/19 04:14:35;;;;;;;10.98;9.48;;;5.50;99.90;;;;;;5111959;28;20031;-77
2022/04/19 04:17:02;;;;;;;12.88;10.10;;;5.40;99.90;;;;;;5114087;28;20047;-76
2022/04/19 04:19:27;;;;;;;10.48;9.25;;;5.40;99.90;;;;;;5107497;28;20072;-76
2022/04/19 04:21:53;;;;;;;10.68;9.45;;;5.40;99.90;;;;;;5090864;28;20043;-77
2022/04/19 04:24:19;;;;;;;10.65;9.55;;;5.50;99.90;;;;;;5114036;28;20399;-77
2022/04/19 04:26:45;;;;;;;11.68;9.90;;;5.50;99.90;;;;;;5109425;28;20035;-77
2022/04/19 04:29:10;;;;;;;10.73;9.32;;;5.40;99.90;;;;;;5107399;28;20039;-77
2022/04/19 04:31:36;;;;;;;14.68;9.75;;;5.50;99.90;;;;;;5107691;28;20205;-77
2022/04/19 04:34:02;;;;;;;12.55;9.85;;;5.40;99.90;;;;;;5108869;28;20528;-76
2022/04/19 04:36:27;;;;;;;13.00;9.80;;;5.30;99.90;;;;;;5113686;28;20451;-77
2022/04/19 04:38:53;;;;;;;25.90;10.32;;;5.30;99.90;;;;;;5088369;28;20135;-79
2022/04/19 04:41:19;;;;;;;12.20;9.50;;;5.40;99.90;;;;;;5087404;28;20078;-77
2022/04/19 04:43:44;;;;;;;14.07;9.57;;;5.40;99.90;;;;;;5113100;28;20449;-77
2022/04/19 04:51:38;;;;;;;13.55;10.00;;;5.50;99.90;;;;;;5112897;28;20039;-77
2022/04/19 04:54:04;;;;;;;12.10;9.70;;;5.50;99.90;;;;;;5092525;28;20354;-77
2022/04/19 04:56:29;;;;;;;11.98;9.93;;;5.60;99.90;;;;;;5106026;28;20067;-76
2022/04/19 04:58:55;;;;;;;11.82;9.50;;;5.50;99.90;;;;;;5111736;28;20047;-77
2022/04/19 05:01:21;;;;;;;12.88;10.05;;;5.60;99.90;;;;;;5113245;28;20039;-77
2022/04/19 05:03:46;;;;;;;12.07;9.30;;;5.70;99.90;;;;;;5092901;28;20537;-77
2022/04/19 05:06:12;;;;;;;12.80;9.50;;;5.70;99.90;;;;;;5113614;28;20032;-77
2022/04/19 05:08:38;;;;;;;13.70;9.68;;;5.70;99.90;;;;;;5112521;28;20048;-77
2022/04/19 05:11:04;;;;;;;11.95;9.02;;;5.80;99.90;;;;;;5110961;28;20100;-77
2022/04/19 05:13:29;;;;;;;13.43;10.15;;;5.90;99.90;;;;;;5112136;28;20043;-77
2022/04/19 05:15:58;;;;;;;21.42;10.00;;;6.00;99.90;;;;;;5096285;28;20511;-76
2022/04/19 05:18:24;;;;;;;15.75;9.80;;;6.00;99.90;;;;;;5095130;28;20568;-77
2022/04/19 05:20:49;;;;;;;14.35;9.23;;;6.10;99.90;;;;;;5110323;28;20115;-77
2022/04/19 05:23:15;;;;;;;17.55;9.88;;;6.20;99.90;;;;;;5112225;28;20126;-77
2022/04/19 05:25:41;;;;;;;14.20;9.75;;;6.20;99.90;;;;;;5109921;28;20769;-77
2022/04/19 05:28:06;;;;;;;13.43;9.80;;;6.30;99.90;;;;;;5108075;28;20465;-77
2022/04/19 05:30:32;;;;;;;15.70;9.70;;;6.40;99.90;;;;;;5094996;28;20040;-77
2022/04/19 05:32:58;;;;;;;13.50;9.30;;;6.50;99.90;;;;;;5112630;28;20093;-77
2022/04/19 05:35:24;;;;;;;13.30;9.50;;;6.60;99.90;;;;;;5110127;28;20427;-77
2022/04/19 05:37:49;;;;;;;12.05;9.07;;;6.70;99.90;;;;;;5099846;28;20044;-77
2022/04/19 05:40:15;;;;;;;14.68;9.73;;;6.80;99.90;;;;;;5108703;28;20043;-77
2022/04/19 05:42:40;;;;;;;13.80;9.25;;;6.90;99.90;;;;;;5094616;28;20079;-77
2022/04/19 05:45:06;;;;;;;11.73;8.98;;;7.00;99.90;;;;;;5112563;28;20515;-77
2022/04/19 05:47:33;;;;;;;12.43;9.20;;;8.00;99.90;;;;;;5111443;28;20043;-77
2022/04/19 05:49:58;;;;;;;10.45;8.82;;;9.50;99.90;;;;;;5112154;28;20039;-77
2022/04/19 05:52:24;;;;;;;10.05;8.38;;;11.00;99.90;;;;;;5110556;28;20043;-77
2022/04/19 05:54:49;;;;;;;11.48;8.45;;;12.20;99.90;;;;;;5088859;28;20051;-77
2022/04/19 05:57:15;;;;;;;11.95;8.02;;;13.20;99.90;;;;;;5103402;28;20087;-77
2022/04/19 05:59:40;;;;;;;11.43;9.02;;;14.10;99.40;;;;;;5111412;28;20046;-77
2022/04/19 06:04:54;;;;;;;9.48;8.18;;;15.50;92.00;;;;;;5111541;28;20084;-77
2022/04/19 06:07:20;;;;;;;10.07;8.23;;;16.30;93.30;;;;;;5112166;28;20469;-78
2022/04/19 06:09:45;;;;;;;10.10;7.78;;;16.70;88.90;;;;;;5091161;27;20096;-77
2022/04/19 06:12:11;;;;;;;9.73;8.60;;;16.90;90.40;;;;;;5092533;28;20082;-77
2022/04/19 06:14:37;;;;;;;9.95;8.57;;;17.40;82.80;;;;;;5106247;28;20191;-77
2022/04/19 06:17:03;;;;;;;10.70;8.70;;;17.70;81.00;;;;;;5099451;28;20055;-77
2022/04/19 06:19:29;;;;;;;10.32;8.38;;;18.00;77.30;;;;;;5111458;28;20051;-77
2022/04/19 06:21:55;;;;;;;8.70;7.40;;;18.40;74.20;;;;;;5086996;28;20031;-78
2022/04/19 06:24:20;;;;;;;10.73;8.10;;;18.00;71.30;;;;;;5106132;28;20043;-77
2022/04/19 06:26:46;;;;;;;9.75;8.55;;;18.50;66.70;;;;;;5102781;28;20074;-78
2022/04/19 06:29:12;;;;;;;10.13;8.18;;;18.70;68.60;;;;;;5097609;28;20175;-78
2022/04/19 06:31:37;;;;;;;9.55;8.32;;;18.90;68.10;;;;;;5091243;28;20071;-77
2022/04/19 06:34:03;;;;;;;11.20;8.50;;;18.50;64.70;;;;;;5099551;27;20040;-79
2022/04/19 06:36:28;;;;;;;11.18;8.05;;;18.40;66.00;;;;;;5102935;28;20782;-78
2022/04/19 06:38:54;;;;;;;10.93;8.05;;;18.90;67.10;;;;;;5106652;28;20047;-78
2022/04/19 06:41:20;;;;;;;10.30;9.02;;;19.20;68.90;;;;;;5104493;28;20376;-78
2022/04/19 06:43:46;;;;;;;9.60;8.40;;;19.10;65.60;;;;;;5110983;28;20086;-78
2022/04/19 06:46:12;;;;;;;9.68;7.07;;;19.40;67.10;;;;;;5109538;28;20071;-78
2022/04/19 06:48:38;;;;;;;14.55;8.27;;;20.30;66.90;;;;;;5094495;28;20047;-76
2022/04/19 06:51:04;;;;;;;10.40;7.55;;;20.60;63.90;;;;;;5110981;28;20495;-76
2022/04/19 06:53:30;;;;;;;10.65;7.68;;;20.60;61.60;;;;;;5093930;28;20043;-77
2022/04/19 06:55:58;;;;;;;10.90;7.45;;;21.10;61.80;;;;;;5106444;28;20038;-77
2022/04/19 06:58:25;;;;;;;8.65;7.85;;;21.50;60.50;;;;;;5082302;28;20036;-77
2022/04/19 07:00:51;;;;;;;10.18;7.60;;;21.90;59.60;;;;;;5101066;28;20046;-77
2022/04/19 07:03:17;;;;;;;10.48;7.47;;;21.80;58.40;;;;;;5091020;28;20031;-77
2022/04/19 07:05:42;;;;;;;9.63;7.60;;;22.30;55.10;;;;;;5106298;28;20040;-77
2022/04/19 07:08:08;;;;;;;10.50;7.85;;;22.20;57.10;;;;;;5110208;28;20409;-77
2022/04/19 07:10:36;;;;;;;10.90;7.53;;;22.20;55.30;;;;;;5110911;28;20047;-77
2022/04/19 07:13:03;;;;;;;8.52;7.60;;;21.60;55.00;;;;;;5110103;28;20056;-77
2022/04/19 07:15:29;;;;;;;9.43;7.25;;;21.30;55.40;;;;;;5109386;28;20039;-77
2022/04/19 07:17:54;;;;;;;8.20;7.10;;;21.90;54.70;;;;;;5096585;28;20054;-77
2022/04/19 07:28:35;;;;;;;9.20;7.47;;;21.60;53.60;;;;;;5102542;28;20043;-78
2022/04/19 07:31:04;;;;;;;8.40;7.60;;;22.10;55.00;;;;;;5109338;28;20123;-78
2022/04/19 07:33:30;;;;;;;9.00;7.90;;;22.40;53.60;;;;;;5107696;28;20050;-78
2022/04/19 07:35:56;;;;;;;9.75;7.95;;;21.60;54.70;;;;;;5110142;28;20118;-78
2022/04/19 07:38:22;;;;;;;12.00;7.50;;;21.80;54.10;;;;;;5108987;28;20130;-78
2022/04/19 07:40:48;;;;;;;9.25;7.25;;;22.30;53.80;;;;;;5108274;28;20059;-77
2022/04/19 07:43:14;;;;;;;9.07;5.93;;;22.10;54.90;;;;;;5102770;28;20050;-77
2022/04/19 07:45:40;;;;;;;7.28;6.53;;;22.50;53.80;;;;;;5104607;28;20039;-78
2022/04/19 07:48:06;;;;;;;7.28;5.80;;;22.50;53.20;;;;;;5101119;28;20043;-77
2022/04/19 07:50:33;;;;;;;9.30;6.15;;;22.10;54.00;;;;;;5106540;28;20046;-77
2022/04/19 07:52:59;;;;;;;7.03;6.15;;;20.90;56.00;;;;;;5089067;28;20125;-77
2022/04/19 07:55:25;;;;;;;9.30;7.43;;;20.20;58.20;;;;;;5091704;28;20051;-77
2022/04/19 07:57:51;;;;;;;8.55;6.43;;;19.30;59.80;;;;;;5107873;28;20511;-75
2022/04/19 08:00:18;;;;;;;7.68;6.88;;;18.60;59.70;;;;;;5109688;28;20062;-76
2022/04/19 08:02:43;;;;;;;8.85;7.10;;;17.80;61.70;;;;;;5091437;28;20039;-77
2022/04/19 08:05:09;;;;;;;8.75;6.68;;;17.10;62.70;;;;;;5107886;28;20097;-76
2022/04/19 08:07:35;;;;;;;9.75;7.00;;;16.90;65.30;;;;;;5108486;28;20043;-77
2022/04/19 08:10:01;;;;;;;8.55;6.50;;;16.40;65.10;;;;;;5090488;28;20048;-76
2022/04/19 08:12:27;;;;;;;6.75;5.80;;;16.20;67.50;;;;;;5109835;28;20579;-77
2022/04/19 08:14:53;;;;;;;6.63;5.93;;;15.90;68.30;;;;;;5091779;28;20051;-76
2022/04/19 08:17:18;;;;;;;10.18;6.07;;;15.80;72.10;;;;;;5087771;28;20039;-76
2022/04/19 08:19:44;;;;;;;5.65;5.00;;;15.80;71.90;;;;;;5105908;28;20059;-77
2022/04/19 08:22:10;;;;;;;6.57;5.05;;;16.00;73.80;;;;;;5106491;28;20046;-76
2022/04/19 08:24:35;;;;;;;6.30;5.50;;;16.10;74.00;;;;;;5093991;28;20080;-76
2022/04/19 08:27:01;;;;;;;6.45;5.28;;;15.90;71.50;;;;;;5105814;28;20080;-76
2022/04/19 08:29:26;;;;;;;6.97;5.03;;;15.90;70.60;;;;;;5105933;28;20047;-76
2022/04/19 08:31:52;;;;;;;6.40;5.15;;;15.90;75.60;;;;;;5106110;28;20159;-76
2022/04/19 08:34:17;;;;;;;8.13;4.70;;;15.90;75.50;;;;;;5099767;28;20071;-77
2022/04/19 08:36:43;;;;;;;7.22;5.05;;;16.00;74.40;;;;;;5106311;28;20131;-76
2022/04/19 08:39:09;;;;;;;6.95;4.40;;;16.10;76.90;;;;;;5105610;28;20067;-76
2022/04/19 08:41:37;;;;;;;6.88;4.78;;;15.90;75.60;;;;;;5090099;28;20062;-76
2022/04/19 08:44:04;;;;;;;8.80;4.63;;;15.90;74.80;;;;;;5105183;28;20116;-76
2022/04/19 08:46:31;;;;;;;6.78;4.07;;;15.90;75.70;;;;;;5084235;28;20028;-76
2022/04/19 08:49:02;;;;;;;5.82;3.92;;;15.80;71.10;;;;;;5107087;28;20047;-76
2022/04/19 08:51:32;;;;;;;5.05;3.50;;;15.80;73.90;;;;;;5092971;28;20116;-76
2022/04/19 08:59:33;;;;;;;5.38;2.70;;;16.20;62.90;;;;;;5100389;28;20043;-77
2022/04/19 09:02:02;;;;;;;4.40;2.67;;;16.00;62.70;;;;;;5105084;28;20481;-76
2022/04/19 09:04:27;;;;;;;3.40;2.20;;;16.00;62.10;;;;;;5084030;28;20443;-77
2022/04/19 09:06:55;;;;;;;3.10;1.90;;;16.00;61.40;;;;;;5111571;28;20040;-77
2022/04/19 09:09:23;;;;;;;1.83;1.50;;;16.00;60.40;;;;;;5108696;28;20147;-76
2022/04/19 09:11:50;;;;;;;3.40;1.75;;;16.00;64.50;;;;;;5112140;28;20120;-77
2022/04/19 09:14:16;;;;;;;2.78;1.35;;;16.00;57.10;;;;;;5111567;28;20032;-77
2022/04/19 09:16:41;;;;;;;1.83;1.73;;;16.10;62.30;;;;;;5095236;28;20478;-78
2022/04/19 09:19:16;;;;;;;2.42;1.80;;;16.20;68.20;;;;;;5094469;28;20031;-76
2022/04/19 09:21:42;;;;;;;2.00;1.60;;;16.20;66.00;;;;;;5101443;28;20519;-76
2022/04/19 09:24:20;;;;;;;3.67;1.90;;;16.20;66.40;;;;;;5108779;28;20122;-76
2022/04/19 09:26:48;;;;;;;3.45;1.48;;;16.20;62.90;;;;;;5086914;28;20434;-76
2022/04/19 09:29:20;;;;;;;2.13;1.70;;;16.30;63.10;;;;;;5111608;28;20051;-77
2022/04/19 09:31:46;;;;;;;2.53;1.50;;;16.30;68.90;;;;;;5111318;28;20050;-76
2022/04/19 09:34:23;;;;;;;5.28;1.73;;;16.50;66.10;;;;;;5110011;28;20044;-77
2022/04/19 09:36:53;;;;;;;9.18;1.98;;;16.60;59.70;;;;;;5110240;28;20044;-76
2022/04/19 09:39:26;;;;;;;2.22;1.38;;;16.50;63.90;;;;;;5108838;28;20061;-77
2022/04/19 09:42:05;;;;;;;2.55;1.77;;;16.60;68.00;;;;;;5112799;28;20039;-76
2022/04/19 09:44:39;;;;;;;4.22;1.75;;;16.60;62.80;;;;;;5112300;28;20048;-76
2022/04/19 09:47:06;;;;;;;3.47;1.77;;;16.50;61.40;;;;;;5094559;28;20044;-76
2022/04/19 09:50:03;;;;;;;3.53;1.55;;;16.40;59.60;;;;;;5112671;28;20035;-77
2022/04/19 09:52:28;;;;;;;2.47;1.75;;;16.30;58.90;;;;;;5127140;27;20052;-77
2022/04/19 09:55:08;;;;;;;2.42;1.92;;;16.50;65.10;;;;;;5106296;28;20055;-77
2022/04/19 09:57:41;;;;;;;2.58;2.08;;;16.60;66.30;;;;;;5110624;28;20027;-78
2022/04/19 10:00:12;;;;;;;3.00;2.03;;;16.70;67.10;;;;;;5094879;28;20071;-78
2022/04/19 10:08:23;;;;;;;2.33;2.13;;;16.70;62.30;;;;;;5078385;28;20503;-77
2022/04/19 10:10:51;;;;;;;2.22;1.98;;;16.80;67.40;;;;;;5110245;28;20032;-77
2022/04/19 10:13:19;;;;;;;3.60;1.92;;;16.90;64.20;;;;;;5111866;28;20429;-77
2022/04/19 10:15:44;;;;;;;2.13;1.83;;;17.00;64.60;;;;;;5112024;28;20123;-78
2022/04/19 10:18:10;;;;;;;2.40;2.13;;;17.00;66.50;;;;;;5111863;28;20126;-78
2022/04/19 10:20:46;;;;;;;3.60;2.08;;;17.00;58.90;;;;;;5111831;28;20039;-78
2022/04/19 10:23:13;;;;;;;3.08;2.28;;;16.90;59.30;;;;;;5111833;28;20122;-76
2022/04/19 10:25:43;;;;;;;3.25;2.30;;;16.90;61.80;;;;;;5094559;28;20493;-76
2022/04/19 10:28:30;;;;;;;3.70;2.50;;;16.90;62.10;;;;;;5087244;28;20085;-75
2022/04/19 10:30:56;;;;;;;2.97;2.08;;;17.00;64.30;;;;;;5111675;28;20576;-75
2022/04/19 10:33:48;;;;;;;4.13;2.30;;;17.30;68.30;;;;;;5111670;28;20122;-76
2022/04/19 10:36:16;;;;;;;3.80;2.45;;;17.20;62.80;;;;;;5102837;28;20722;-75
2022/04/19 10:38:42;;;;;;;3.30;2.53;;;17.30;62.60;;;;;;5106311;28;20035;-75
2022/04/19 10:41:08;;;;;;;4.25;2.20;;;17.30;61.70;;;;;;5102160;28;20051;-75
2022/04/19 10:43:34;;;;;;;4.25;2.47;;;17.20;63.50;;;;;;5097773;28;20346;-76
2022/04/19 10:46:19;;;;;;;4.32;2.85;;;17.30;62.10;;;;;;5106840;28;20028;-75
2022/04/19 10:49:20;;;;;;;2.38;2.17;;;17.30;65.10;;;;;;5104812;28;20043;-75
2022/04/19 10:51:46;;;;;;;2.97;2.70;;;17.30;63.20;;;;;;5100265;28;20059;-75
2022/04/19 10:54:13;;;;;;;3.28;2.95;;;17.10;61.30;;;;;;5087703;28;20051;-75
2022/04/19 10:57:13;;;;;;;4.95;3.00;;;17.00;59.70;;;;;;5087828;28;20035;-75
2022/04/19 10:59:39;;;;;;;3.45;3.03;;;17.10;60.80;;;;;;5105121;28;20426;-75
2022/04/19 11:02:35;;;;;;;3.53;3.22;;;17.10;62.00;;;;;;5109790;28;20035;-74
2022/04/19 11:05:02;;;;;;;3.05;2.53;;;17.20;63.20;;;;;;5080815;28;20409;-75
2022/04/19 11:07:41;;;;;;;13.57;2.40;;;17.30;61.90;;;;;;5115296;27;20600;-75
2022/04/19 11:10:07;;;;;;;2.80;2.60;;;17.60;62.10;;;;;;5101147;28;20051;-75
2022/04/19 11:12:56;;;;;;;4.15;2.63;;;17.40;62.30;;;;;;5098083;28;20035;-75
2022/04/19 11:15:37;;;;;;;4.43;2.90;;;17.50;58.20;;;;;;5086744;28;20186;-75
2022/04/19 11:18:53;;;;;;;5.15;2.90;;;17.60;64.10;;;;;;5101795;28;20047;-75
2022/04/19 11:21:48;;;;;;;7.13;3.15;;;17.60;64.20;;;;;;5081833;28;20128;-75
2022/04/19 11:24:53;;;;;;;5.35;2.70;;;17.60;63.50;;;;;;5094785;28;20044;-75
2022/04/19 11:27:19;;;;;;;4.30;2.90;;;17.60;61.10;;;;;;5111649;27;20039;-75
2022/04/19 11:29:51;;;;;;;4.35;2.75;;;17.70;65.30;;;;;;5082751;28;20066;-75
2022/04/19 11:32:25;;;;;;;2.85;2.55;;;17.90;65.50;;;;;;5105485;28;20039;-74
2022/04/19 11:35:01;;;;;;;3.20;2.58;;;18.00;62.70;;;;;;5088098;28;20040;-74
2022/04/19 11:37:29;;;;;;;3.67;2.30;;;17.90;58.70;;;;;;5091357;28;20046;-75
2022/04/19 11:48:27;;;;;;;3.67;2.55;;;18.00;61.60;;;;;;5101261;28;20039;-74
2022/04/19 11:50:53;;;;;;;15.32;3.20;;;18.00;62.20;;;;;;5101456;28;20081;-75
2022/04/19 11:53:24;;;;;;;2.80;2.25;;;17.90;59.00;;;;;;5107697;28;20621;-75
2022/04/19 11:55:52;;;;;;;6.05;2.67;;;17.80;57.80;;;;;;5108093;28;20047;-75
2022/04/19 11:58:22;;;;;;;3.10;1.92;;;17.80;57.20;;;;;;5106557;28;20096;-75
2022/04/19 12:01:05;;;;;;;2.70;2.30;;;17.90;56.90;;;;;;5107130;28;20514;-75
2022/04/19 12:03:33;;;;;;;3.22;2.53;;;18.00;58.60;;;;;;5108287;28;20042;-75
2022/04/19 12:06:14;;;;;;;3.42;2.20;;;17.90;58.00;;;;;;5092582;28;20039;-75
2022/04/19 12:08:45;;;;;;;4.60;2.33;;;17.90;60.10;;;;;;5105833;28;20032;-75
2022/04/19 12:11:17;;;;;;;3.67;2.30;;;18.00;61.80;;;;;;5110375;28;20035;-75
2022/04/19 12:13:45;;;;;;;3.55;2.53;;;18.00;61.90;;;;;;5108417;28;20040;-75
2022/04/19 12:16:30;;;;;;;2.30;2.10;;;17.80;59.20;;;;;;5107634;28;20035;-75
2022/04/19 12:19:01;;;;;;;3.30;1.90;;;17.90;62.20;;;;;;5088202;28;20096;-75
2022/04/19 12:21:46;;;;;;;2.47;1.87;;;18.10;63.30;;;;;;5113388;22;20079;-81
2022/04/19 12:24:22;;;;;;;3.03;2.28;;;18.20;60.80;;;;;;5048778;28;20172;-84
2022/04/19 12:27:07;;;;;;;3.88;2.17;;;18.20;58.10;;;;;;5049938;28;20473;-83
2022/04/19 12:29:35;;;;;;;2.63;2.03;;;18.20;61.10;;;;;;5033931;28;20044;-83
2022/04/19 12:32:02;;;;;;;4.80;2.33;;;18.20;57.10;;;;;;5040006;28;20102;-85
2022/04/19 12:34:38;;;;;;;2.47;2.10;;;18.20;56.40;;;;;;5027410;28;20095;-82
2022/04/19 12:37:05;;;;;;;3.13;2.42;;;18.30;59.50;;;;;;5050840;28;20033;-85
2022/04/19 12:39:31;;;;;;;2.10;1.90;;;18.30;58.40;;;;;;5055778;28;20048;-84
2022/04/19 12:42:04;;;;;;;6.05;2.55;;;18.40;61.90;;;;;;5055091;28;20402;-84
2022/04/19 12:44:30;;;;;;;3.30;2.42;;;18.60;60.70;;;;;;5050053;28;20120;-84
2022/04/19 12:46:56;;;;;;;3.35;2.30;;;18.60;61.10;;;;;;5053566;28;20498;-84
2022/04/19 12:49:24;;;;;;;2.33;2.13;;;18.50;61.00;;;;;;5055386;28;20040;-84
2022/04/19 12:52:09;;;;;;;3.67;2.70;;;18.30;55.50;;;;;;5053873;28;20048;-85
2022/04/19 12:54:37;;;;;;;3.30;2.88;;;18.40;59.00;;;;;;5055064;28;20049;-84
2022/04/19 12:57:05;;;;;;;5.15;2.42;;;18.50;62.40;;;;;;5055207;28;20037;-84
2022/04/19 12:59:32;;;;;;;3.53;2.75;;;18.00;61.70;;;;;;5054395;28;20048;-84
2022/04/19 13:01:59;;;;;;;3.80;2.30;;;18.10;61.60;;;;;;5051683;28;20120;-84
2022/04/19 13:04:25;;;;;;;4.07;2.40;;;18.20;61.20;;;;;;5049740;28;20053;-84
2022/04/19 13:12:22;;;;;;;2.22;2.03;;;18.40;59.90;;;;;;5047617;28;20044;-84
2022/04/19 13:14:49;;;;;;;2.90;2.55;;;18.60;63.00;;;;;;5054917;28;20048;-85
2022/04/19 13:17:15;;;;;;;3.33;2.42;;;18.60;59.00;;;;;;5054338;28;20036;-85
2022/04/19 13:19:41;;;;;;;4.30;2.40;;;18.60;59.70;;;;;;5053696;28;20045;-84
2022/04/19 13:22:08;;;;;;;2.88;2.03;;;18.40;58.10;;;;;;5034109;28;20053;-82
2022/04/19 13:24:34;;;;;;;5.75;2.55;;;18.60;58.50;;;;;;5053302;28;20110;-82
2022/04/19 13:27:00;;;;;;;5.68;2.88;;;18.60;58.10;;;;;;5036436;28;20080;-82
2022/04/19 13:29:25;;;;;;;4.72;2.55;;;18.60;58.40;;;;;;5040157;28;20052;-82
2022/04/19 13:31:52;;;;;;;5.25;2.80;;;18.70;62.40;;;;;;5051148;28;20480;-82
2022/04/19 13:34:19;;;;;;;3.80;2.97;;;18.50;58.60;;;;;;5051382;28;20051;-82
2022/04/19 13:36:45;;;;;;;4.35;2.33;;;17.70;55.20;;;;;;5048156;28;20064;-81
2022/04/19 13:39:11;;;;;;;3.25;2.40;;;17.90;58.80;;;;;;5044960;28;20029;-84
2022/04/19 13:41:38;;;;;;;3.50;2.13;;;18.20;59.60;;;;;;5046389;28;20716;-80
2022/04/19 13:44:06;;;;;;;2.35;2.15;;;18.40;55.80;;;;;;5054039;28;20037;-83